Padiham, United Kingdom
Current Conditions -  °F | °C
As of 12:20 PM on Sunday 23 Nov 2014 (Local Time) from EGNM Reporting Station
Few Clouds Few Clouds  
Wind Chill: 40°   Ceiling: Unl
Heat Index: 45°   Visibility: 6mi
Dew Point: 43°   Wind: 9mph
Humidity: 93%   Direction: 300°WNW
Pressure: 30"   Gusts: NA
Location:  53.8°N, 2.32°W
Report Text: EGNM 231220Z 30008KT 9999 FEW010 07/06 Q1016
Loading
Personal Weather Stations






























Interactive Weather Map New forecast layout! Learn more

10-Day Weather Forecast

Advertisements
Track Severe Weather on mobile